Milton Freewater, Oregon
Current Conditions -  °F | °C
As of 6:53 PM on Tuesday 25 Nov 2014 (Local Time) from KALW Reporting Station
Moderate Fog Moderate Fog  
Wind Chill: 38°   Ceiling: 100
Heat Index: 43°   Visibility: 0mi
Dew Point: 42°   Wind: 9mph
Humidity: 97%   Direction: 210°SSW
Pressure: 30.2"   Gusts: NA
Location:  45.94°N, 118.39°W
Report Text: KALW 260253Z AUTO 21008KT M1/4SM R20/1400V1600FT FG VV001 06/06 A3020 RMK AO2 SLP231 T00610056 50001
Loading
Personal Weather Stations






























Interactive Weather Map New forecast layout! Learn more

10-Day Weather Forecast

Advertisements
Track Severe Weather on mobile